Time;durP1;ratioP1;P1;durP2;ratioP2;P2;SDS_P1;SDS_P2;PMS_P1;PMS_P2;Temp;Humidity;BMP_temperature;BMP_pressure;BME280_temperature;BME280_humidity;BME280_pressure;Samples;Min_cycle;Max_cycle;Signal;HPM_P1;HPM_P2
2023/08/19 00:00:53;;;;;;;5.63;3.35;;;;;;;23.08;62.85;98312.19;5031341;28;20696;-57
2023/08/19 00:03:19;;;;;;;3.30;2.95;;;;;;;23.09;62.50;98308.59;5030690;28;20256;-57
2023/08/19 00:05:44;;;;;;;4.95;3.33;;;;;;;23.06;62.05;98308.09;5031224;28;20269;-56
2023/08/19 00:08:10;;;;;;;3.08;2.80;;;;;;;22.75;62.85;98266.16;5031255;28;20190;-57
2023/08/19 00:10:35;;;;;;;5.75;3.40;;;;;;;22.97;62.71;98285.47;5031256;28;20265;-57
2023/08/19 00:13:01;;;;;;;2.92;2.72;;;;;;;23.16;61.00;98314.75;5031261;28;20173;-57
2023/08/19 00:15:26;;;;;;;4.07;3.03;;;;;;;23.17;60.46;98291.81;5031075;28;20299;-57
2023/08/19 00:17:52;;;;;;;3.30;3.00;;;;;;;23.11;60.54;98290.72;5031223;28;20166;-57
2023/08/19 00:20:17;;;;;;;5.38;3.40;;;;;;;23.17;61.26;98278.63;5031177;28;20173;-57
2023/08/19 00:22:43;;;;;;;3.10;2.90;;;;;;;23.19;62.56;98300.38;5031475;28;20174;-57
2023/08/19 00:25:08;;;;;;;5.45;2.70;;;;;;;23.21;62.07;98308.94;5031238;28;20186;-57
2023/08/19 00:27:33;;;;;;;5.55;3.28;;;;;;;23.01;62.47;98268.28;5031216;28;20177;-57
2023/08/19 00:29:59;;;;;;;5.35;2.80;;;;;;;23.14;61.77;98290.34;5031050;28;20277;-56
2023/08/19 00:32:24;;;;;;;6.70;3.03;;;;;;;23.14;61.46;98308.00;5031289;28;20177;-56
2023/08/19 00:34:50;;;;;;;3.03;2.72;;;;;;;23.00;61.50;98274.53;5031077;28;20206;-56
2023/08/19 00:37:15;;;;;;;3.92;3.17;;;;;;;22.96;62.71;98281.22;5031129;28;20170;-57
2023/08/19 00:39:40;;;;;;;3.90;3.10;;;;;;;23.02;62.23;98291.81;5031121;28;20182;-57
2023/08/19 00:42:06;;;;;;;3.45;3.10;;;;;;;23.14;62.46;98303.53;5030724;28;20185;-57
2023/08/19 00:44:34;;;;;;;4.43;3.10;;;;;;;23.30;61.54;98313.09;5031054;28;20268;-59
2023/08/19 00:47:03;;;;;;;3.20;2.90;;;;;;;23.17;61.17;98286.53;5031125;28;20559;-57
2023/08/19 00:49:30;;;;;;;4.25;2.60;;;;;;;23.08;60.20;98282.38;5030742;28;20190;-56
2023/08/19 00:51:57;;;;;;;4.22;2.70;;;;;;;23.10;60.03;98275.91;5031271;28;20722;-56
2023/08/19 00:54:22;;;;;;;3.72;2.70;;;;;;;23.19;60.39;98289.81;5030774;28;20247;-57
2023/08/19 00:56:48;;;;;;;3.78;2.78;;;;;;;23.16;60.79;98290.16;5030640;28;20185;-57
2023/08/19 00:59:14;;;;;;;4.35;3.00;;;;;;;23.26;61.32;98317.13;5030631;28;20265;-57
2023/08/19 01:01:39;;;;;;;3.33;3.03;;;;;;;22.98;61.74;98274.75;5031157;28;20170;-57
2023/08/19 01:04:05;;;;;;;6.10;2.88;;;;;;;22.98;60.73;98274.75;5030870;28;20604;-57
2023/08/19 01:06:46;;;;;;;3.28;2.60;;;;;;;22.98;60.08;98281.84;5030740;28;20182;-57
2023/08/19 01:09:41;;;;;;;8.38;3.28;;;;;;;23.21;59.78;98307.13;5030754;28;20268;-57
2023/08/19 01:12:29;;;;;;;7.30;2.78;;;;;;;23.06;61.19;98308.94;5030815;28;20177;-57
2023/08/19 01:15:29;;;;;;;4.30;3.20;;;;;;;22.99;62.02;98283.47;5032581;28;20587;-58
2023/08/19 01:17:56;;;;;;;5.07;3.40;;;;;;;22.98;62.52;98300.31;4992578;28;20187;-57
2023/08/19 01:20:29;;;;;;;3.30;3.00;;;;;;;22.88;62.59;98282.13;4992549;28;20711;-57
2023/08/19 01:23:11;;;;;;;6.72;3.22;;;;;;;23.00;62.99;98317.59;4992466;28;20190;-57
2023/08/19 01:25:37;;;;;;;3.17;2.95;;;;;;;22.92;62.59;98293.13;4992774;28;20187;-57
2023/08/19 01:28:03;;;;;;;3.35;3.15;;;;;;;22.78;62.61;98276.31;4992438;28;20657;-56
2023/08/19 01:30:30;;;;;;;5.10;3.50;;;;;;;22.71;62.98;98285.16;4992466;28;20179;-56
2023/08/19 01:32:56;;;;;;;4.72;2.97;;;;;;;22.49;63.74;98255.25;4992374;28;20183;-57
2023/08/19 01:35:23;;;;;;;6.28;3.50;;;;;;;22.61;64.48;98287.28;4992289;28;20219;-57
2023/08/19 01:38:09;;;;;;;6.45;3.80;;;;;;;22.43;65.43;98265.69;4992618;28;20186;-57
2023/08/19 01:40:36;;;;;;;8.15;3.53;;;;;;;22.15;65.63;98238.34;4992179;28;20223;-57
2023/08/19 01:43:05;;;;;;;3.17;2.97;;;;;;;22.18;65.45;98245.88;4992223;28;20554;-57
2023/08/19 01:45:32;;;;;;;3.45;3.15;;;;;;;22.23;65.57;98260.16;4992142;28;20191;-57
2023/08/19 01:47:58;;;;;;;5.00;3.47;;;;;;;22.08;65.55;98234.78;4992352;28;20732;-57
2023/08/19 01:50:24;;;;;;;4.80;3.30;;;;;;;22.08;65.27;98245.34;4991969;28;20184;-57
2023/08/19 01:52:49;;;;;;;3.45;3.00;;;;;;;22.20;65.54;98284.22;5002162;28;20272;-57
2023/08/19 01:55:15;;;;;;;4.68;2.88;;;;;;;22.14;64.42;98273.59;5033640;28;20209;-57
2023/08/19 01:57:40;;;;;;;5.03;3.05;;;;;;;22.31;64.29;98288.25;5033409;28;20185;-57
2023/08/19 02:00:07;;;;;;;3.55;3.10;;;;;;;22.24;65.12;98279.41;5033637;28;20180;-57
2023/08/19 02:02:33;;;;;;;4.53;3.60;;;;;;;22.06;65.56;98242.88;5033620;28;20578;-57
2023/08/19 02:04:58;;;;;;;4.05;3.03;;;;;;;22.10;65.35;98243.31;5033598;28;20192;-57
2023/08/19 02:07:24;;;;;;;5.47;3.42;;;;;;;22.12;65.68;98236.88;5033552;28;20247;-57
2023/08/19 02:09:49;;;;;;;3.50;3.15;;;;;;;22.24;65.40;98258.31;5033790;28;20212;-58
2023/08/19 02:12:14;;;;;;;3.38;3.08;;;;;;;22.36;65.22;98275.31;5033397;28;20173;-58
2023/08/19 02:14:40;;;;;;;5.05;3.42;;;;;;;22.33;65.65;98291.50;5033346;28;20651;-58
2023/08/19 02:17:05;;;;;;;2.67;2.47;;;;;;;22.24;63.29;98297.84;5033343;28;20170;-58
2023/08/19 02:19:31;;;;;;;2.70;2.50;;;;;;;22.17;63.17;98287.22;5033253;28;20178;-58
2023/08/19 02:21:56;;;;;;;3.13;2.80;;;;;;;22.13;64.37;98295.66;5033393;28;20174;-58
2023/08/19 02:24:22;;;;;;;3.22;2.85;;;;;;;22.05;64.63;98287.84;5033295;28;20213;-58
2023/08/19 02:26:47;;;;;;;2.80;2.60;;;;;;;22.14;64.40;98297.31;5032211;28;20170;-58
2023/08/19 02:29:12;;;;;;;3.72;3.15;;;;;;;21.96;65.50;98267.84;5033086;28;20205;-58
2023/08/19 02:31:38;;;;;;;4.78;3.50;;;;;;;22.11;66.18;98287.13;5033024;28;20182;-58
2023/08/19 02:34:04;;;;;;;5.50;3.30;;;;;;;22.17;65.96;98291.69;5033004;28;20190;-58
2023/08/19 02:36:31;;;;;;;3.67;3.15;;;;;;;22.04;65.95;98288.84;5033061;28;20184;-58
2023/08/19 02:38:57;;;;;;;3.17;2.97;;;;;;;22.03;66.00;98282.75;5032952;28;20180;-58
2023/08/19 02:41:22;;;;;;;3.47;3.10;;;;;;;21.98;65.40;98271.91;5032850;28;20572;-58
2023/08/19 02:43:47;;;;;;;3.30;3.03;;;;;;;21.86;65.41;98256.75;5032885;28;20408;-58
2023/08/19 02:46:13;;;;;;;5.15;3.13;;;;;;;21.87;65.44;98263.66;5032747;28;20177;-58
2023/08/19 02:48:38;;;;;;;3.03;2.80;;;;;;;21.89;64.79;98251.09;5032787;28;20227;-58
2023/08/19 02:51:03;;;;;;;3.13;2.83;;;;;;;22.00;65.18;98274.38;5032414;28;20174;-58
2023/08/19 02:53:29;;;;;;;3.38;3.08;;;;;;;21.75;65.63;98239.56;5032596;28;20628;-58
2023/08/19 02:55:55;;;;;;;3.40;3.10;;;;;;;21.68;66.12;98232.56;5032589;28;20633;-58
2023/08/19 02:58:21;;;;;;;3.67;2.67;;;;;;;21.85;66.29;98249.84;5032255;28;20261;-58
2023/08/19 03:00:47;;;;;;;3.05;2.63;;;;;;;21.76;66.26;98235.09;5032487;28;20181;-58
2023/08/19 03:03:13;;;;;;;3.28;3.08;;;;;;;21.85;66.03;98250.66;5032402;28;20181;-58
2023/08/19 03:05:39;;;;;;;4.15;3.08;;;;;;;22.00;66.27;98254.13;5032320;28;20652;-58
2023/08/19 03:08:05;;;;;;;3.95;3.55;;;;;;;21.86;66.36;98246.22;5032273;28;20228;-58
2023/08/19 03:10:39;;;;;;;4.20;3.30;;;;;;;21.62;67.49;98243.78;5032255;28;20277;-58
2023/08/19 03:13:06;;;;;;;4.00;3.00;;;;;;;21.52;66.76;98228.22;5032231;28;20176;-57
2023/08/19 03:15:33;;;;;;;2.85;2.50;;;;;;;21.56;66.01;98232.13;5032055;28;20197;-58
2023/08/19 03:17:58;;;;;;;5.90;2.83;;;;;;;21.63;67.05;98263.84;5032101;28;20183;-58
2023/08/19 03:20:24;;;;;;;6.00;3.25;;;;;;;21.54;67.77;98268.34;5032259;28;20169;-57
2023/08/19 03:22:49;;;;;;;3.75;3.13;;;;;;;21.62;66.92;98275.38;5032067;28;20691;-58
2023/08/19 03:25:15;;;;;;;3.75;3.45;;;;;;;21.48;67.29;98255.06;5031924;28;20181;-58
2023/08/19 03:27:41;;;;;;;2.75;2.55;;;;;;;21.39;65.50;98250.88;5031955;28;20252;-58
2023/08/19 03:30:07;;;;;;;6.45;3.08;;;;;;;21.63;65.31;98284.91;5031857;28;20264;-58
2023/08/19 03:32:33;;;;;;;3.30;3.00;;;;;;;21.32;66.27;98247.31;5031775;28;20185;-58
2023/08/19 03:34:58;;;;;;;4.10;3.20;;;;;;;21.44;66.61;98251.16;5031774;28;20197;-58
2023/08/19 03:37:24;;;;;;;3.58;2.97;;;;;;;21.37;67.58;98256.31;5031033;28;20177;-58
2023/08/19 03:39:50;;;;;;;8.05;3.03;;;;;;;21.33;67.82;98256.84;5031385;28;20192;-58
2023/08/19 03:42:15;;;;;;;3.00;2.80;;;;;;;21.45;67.49;98269.41;5031630;28;20182;-58
2023/08/19 03:44:40;;;;;;;4.10;2.85;;;;;;;21.50;66.78;98282.06;5031588;28;20288;-58
2023/08/19 03:47:06;;;;;;;4.78;2.70;;;;;;;21.43;65.74;98283.72;5031573;28;20641;-58
2023/08/19 03:49:31;;;;;;;4.32;2.75;;;;;;;21.60;64.95;98298.41;5031805;28;20581;-58
2023/08/19 03:51:57;;;;;;;4.28;2.88;;;;;;;21.51;65.44;98281.84;5031520;28;20186;-58
2023/08/19 03:54:22;;;;;;;4.28;2.60;;;;;;;21.56;65.44;98261.09;5031389;28;20544;-58
2023/08/19 03:56:48;;;;;;;5.60;2.83;;;;;;;21.62;65.32;98264.84;5031438;28;20277;-58
2023/08/19 03:59:13;;;;;;;3.85;2.70;;;;;;;21.66;64.79;98266.09;5031032;28;20184;-58
2023/08/19 04:01:57;;;;;;;6.18;2.90;;;;;;;21.58;65.52;98256.47;5031363;28;20174;-58
2023/08/19 04:04:25;;;;;;;4.10;3.00;;;;;;;21.48;66.47;98239.25;5045757;28;20627;-58
2023/08/19 04:06:54;;;;;;;4.60;3.00;;;;;;;21.60;66.44;98272.06;5030039;28;20194;-58
2023/08/19 04:09:19;;;;;;;7.05;3.03;;;;;;;21.31;68.22;98251.75;5031286;28;20710;-58
2023/08/19 04:11:44;;;;;;;6.03;3.03;;;;;;;21.24;68.17;98247.34;5031578;28;20315;-58
2023/08/19 04:14:11;;;;;;;3.55;3.10;;;;;;;21.04;68.36;98225.13;5031143;28;20702;-58
2023/08/19 04:16:39;;;;;;;7.50;3.38;;;;;;;21.08;68.15;98226.41;5031163;28;20174;-58
2023/08/19 04:19:04;;;;;;;3.17;2.97;;;;;;;21.31;67.22;98261.44;5031140;28;20178;-58
2023/08/19 04:21:30;;;;;;;4.70;3.00;;;;;;;21.27;67.05;98247.81;5031150;28;20239;-58
2023/08/19 04:23:55;;;;;;;2.83;2.63;;;;;;;21.32;67.60;98250.75;5030966;28;20174;-58
2023/08/19 04:26:21;;;;;;;4.40;2.83;;;;;;;21.48;67.65;98268.22;5030915;28;20273;-57
2023/08/19 04:28:46;;;;;;;4.22;2.97;;;;;;;21.59;67.01;98289.72;5031214;28;20539;-57
2023/08/19 04:31:12;;;;;;;2.85;2.63;;;;;;;21.40;66.63;98253.31;5031351;28;20656;-57
2023/08/19 04:33:38;;;;;;;3.05;2.85;;;;;;;21.47;65.86;98256.06;5030760;28;20189;-57
2023/08/19 04:36:04;;;;;;;3.83;2.90;;;;;;;21.45;66.13;98277.28;5030956;28;20202;-57
2023/08/19 04:38:29;;;;;;;3.97;3.10;;;;;;;21.42;66.57;98279.47;5030615;28;20186;-57
2023/08/19 04:40:56;;;;;;;3.13;2.72;;;;;;;21.52;66.88;98298.47;5030865;28;20194;-57
2023/08/19 04:43:22;;;;;;;6.03;3.28;;;;;;;21.42;66.96;98279.47;5031055;28;20200;-57
2023/08/19 04:45:47;;;;;;;3.35;3.13;;;;;;;21.56;66.65;98297.16;5031032;28;20636;-57
2023/08/19 04:48:13;;;;;;;3.50;3.03;;;;;;;21.57;66.68;98269.81;5031171;28;20648;-57
2023/08/19 04:50:38;;;;;;;3.65;3.28;;;;;;;21.67;66.13;98278.31;5034816;28;20177;-57
2023/08/19 04:53:05;;;;;;;4.07;3.60;;;;;;;21.65;66.71;98286.38;5035240;28;20557;-57
2023/08/19 04:55:30;;;;;;;5.45;3.58;;;;;;;21.66;66.54;98281.91;5035146;28;20217;-57
2023/08/19 04:57:56;;;;;;;4.38;3.05;;;;;;;21.87;65.59;98305.81;5035238;28;20178;-57
2023/08/19 05:00:23;;;;;;;3.42;3.13;;;;;;;21.72;66.32;98302.28;5035190;28;20192;-57
2023/08/19 05:02:49;;;;;;;3.25;3.00;;;;;;;21.77;66.01;98310.50;5035206;28;20181;-57
2023/08/19 05:05:15;;;;;;;6.75;3.30;;;;;;;21.80;66.32;98315.41;5034910;28;20674;-57
2023/08/19 05:07:41;;;;;;;3.45;2.65;;;;;;;21.62;67.06;98306.97;5035105;28;20296;-57
2023/08/19 05:10:08;;;;;;;3.30;3.00;;;;;;;21.73;66.76;98309.22;5034704;28;20265;-57
2023/08/19 05:12:35;;;;;;;3.30;3.00;;;;;;;21.87;66.11;98316.34;5035018;28;20180;-57
2023/08/19 05:15:00;;;;;;;3.22;2.78;;;;;;;21.82;66.12;98308.97;5034618;28;20769;-57
2023/08/19 05:17:26;;;;;;;4.55;2.95;;;;;;;21.85;65.81;98302.53;5034751;28;20221;-57
2023/08/19 05:19:51;;;;;;;6.35;2.88;;;;;;;21.93;65.71;98310.34;5035105;28;20166;-57
2023/08/19 05:22:17;;;;;;;5.93;2.83;;;;;;;21.98;65.97;98313.28;5034747;28;20710;-56
2023/08/19 05:24:43;;;;;;;3.95;3.55;;;;;;;21.77;66.36;98302.59;5034758;28;20268;-57
2023/08/19 05:27:08;;;;;;;3.65;2.65;;;;;;;22.03;65.50;98332.00;5034679;28;20213;-57
2023/08/19 05:29:34;;;;;;;4.80;2.85;;;;;;;21.90;64.33;98321.22;5034670;28;20627;-57
2023/08/19 05:31:59;;;;;;;7.00;2.65;;;;;;;22.09;63.88;98336.56;5034647;28;20192;-57
2023/08/19 05:34:25;;;;;;;2.33;2.22;;;;;;;21.92;64.19;98316.63;5034503;28;20689;-57
2023/08/19 05:36:51;;;;;;;2.88;2.58;;;;;;;22.03;64.38;98337.28;5034592;28;20227;-57
2023/08/19 05:39:16;;;;;;;3.65;2.65;;;;;;;22.06;63.98;98332.47;5034496;28;20178;-57
2023/08/19 05:41:42;;;;;;;3.03;2.80;;;;;;;22.12;64.03;98347.56;5031753;28;20194;-57
2023/08/19 05:44:07;;;;;;;3.33;2.90;;;;;;;22.14;64.07;98340.28;5031933;28;20189;-58
2023/08/19 05:46:33;;;;;;;3.35;2.95;;;;;;;22.07;63.84;98318.28;5031905;28;20787;-57
2023/08/19 05:48:59;;;;;;;3.30;2.55;;;;;;;21.98;63.99;98305.38;5031975;28;20601;-57
2023/08/19 05:51:24;;;;;;;3.10;2.80;;;;;;;22.10;64.08;98309.22;5031862;28;20209;-57
2023/08/19 05:53:50;;;;;;;3.38;3.13;;;;;;;22.09;64.01;98313.66;5031877;28;20194;-57
2023/08/19 05:56:15;;;;;;;3.85;2.60;;;;;;;22.18;64.47;98335.47;5031662;28;20310;-57
2023/08/19 05:58:40;;;;;;;3.63;2.53;;;;;;;21.91;64.96;98296.56;5031706;28;20671;-57
2023/08/19 06:01:06;;;;;;;3.55;2.92;;;;;;;21.99;64.65;98320.19;5030484;28;20194;-57
2023/08/19 06:03:32;;;;;;;5.97;2.92;;;;;;;22.03;64.57;98324.09;5031643;28;20181;-57
2023/08/19 06:06:05;;;;;;;3.42;3.05;;;;;;;22.12;65.32;98331.75;5031577;28;20190;-57
2023/08/19 06:08:31;;;;;;;4.40;2.83;;;;;;;22.00;64.69;98303.38;5031508;28;20288;-57
2023/08/19 06:11:07;;;;;;;5.40;2.90;;;;;;;22.36;64.28;98333.31;5031538;28;20181;-57
2023/08/19 06:13:34;;;;;;;4.07;3.30;;;;;;;22.32;64.12;98305.69;5033292;28;20189;-57
2023/08/19 06:16:01;;;;;;;6.82;3.30;;;;;;;22.43;63.82;98307.88;5033833;28;20201;-57
2023/08/19 06:18:26;;;;;;;4.50;2.85;;;;;;;22.64;62.89;98300.06;5033849;28;20268;-57
2023/08/19 06:20:52;;;;;;;4.07;2.85;;;;;;;22.68;62.98;98294.25;5033681;28;20213;-57
2023/08/19 06:23:19;;;;;;;3.80;2.90;;;;;;;22.83;61.94;98288.94;5033608;28;20178;-57
2023/08/19 06:25:49;;;;;;;3.45;2.90;;;;;;;22.96;61.76;98289.13;5033674;28;20212;-57
2023/08/19 06:28:14;;;;;;;3.25;3.05;;;;;;;23.07;60.99;98293.94;5033925;28;20243;-57
2023/08/19 06:30:40;;;;;;;5.75;3.30;;;;;;;23.35;60.85;98329.19;5033560;28;20177;-57
2023/08/19 06:33:06;;;;;;;2.85;2.65;;;;;;;23.47;60.05;98322.41;5033392;28;20536;-57
2023/08/19 06:35:32;;;;;;;5.57;2.63;;;;;;;23.55;60.05;98322.28;5032970;28;20641;-57
2023/08/19 06:38:02;;;;;;;3.30;3.00;;;;;;;23.40;60.01;98303.88;5033257;28;20189;-57
2023/08/19 06:40:33;;;;;;;2.60;2.40;;;;;;;23.62;59.31;98324.00;5033282;28;20178;-57
2023/08/19 06:43:00;;;;;;;3.67;2.75;;;;;;;23.72;59.51;98327.13;5033384;28;20170;-57
2023/08/19 06:45:26;;;;;;;7.47;2.55;;;;;;;23.63;59.20;98305.28;5033218;28;20265;-57
2023/08/19 06:47:53;;;;;;;3.40;3.10;;;;;;;23.56;59.51;98294.88;5033198;28;20595;-57
2023/08/19 06:50:19;;;;;;;4.03;3.22;;;;;;;23.61;59.61;98303.06;5032856;28;20531;-57
2023/08/19 06:52:45;;;;;;;3.38;2.70;;;;;;;23.56;59.47;98297.50;5033150;28;20177;-58
2023/08/19 06:55:12;;;;;;;5.13;2.92;;;;;;;23.77;59.27;98308.88;5033031;28;20244;-57
2023/08/19 06:57:47;;;;;;;3.42;2.60;;;;;;;24.03;58.31;98317.88;5032945;28;20194;-57
2023/08/19 07:00:13;;;;;;;2.83;2.63;;;;;;;24.03;57.79;98309.94;5033061;28;20684;-57
2023/08/19 07:02:39;;;;;;;2.92;2.60;;;;;;;24.20;57.83;98324.50;5032873;28;20192;-57
2023/08/19 07:05:14;;;;;;;3.25;2.90;;;;;;;23.94;58.15;98301.56;5032921;28;20636;-57
2023/08/19 07:07:48;;;;;;;2.72;2.53;;;;;;;24.06;58.00;98290.25;5032821;28;20335;-57
2023/08/19 07:10:15;;;;;;;5.22;3.17;;;;;;;24.04;58.43;98286.97;5032855;28;20197;-57
2023/08/19 07:12:43;;;;;;;3.88;2.88;;;;;;;24.17;58.58;98291.56;5032596;28;20170;-57
2023/08/19 07:15:12;;;;;;;12.85;3.78;;;;;;;24.50;59.51;98320.66;5030367;28;20218;-57
2023/08/19 07:17:44;;;;;;;6.80;3.35;;;;;;;24.65;59.55;98317.91;5032557;28;20201;-57
2023/08/19 07:20:16;;;;;;;13.15;4.18;;;;;;;24.69;59.55;98303.28;5032613;28;20182;-57
2023/08/19 07:22:44;;;;;;;6.07;3.70;;;;;;;24.87;59.10;98311.50;5032500;28;20295;-57
2023/08/19 07:25:10;;;;;;;4.65;3.70;;;;;;;24.98;58.98;98311.78;5032449;28;20215;-57
2023/08/19 07:27:36;;;;;;;8.27;3.90;;;;;;;25.09;58.09;98305.09;5032398;28;20177;-57
2023/08/19 07:30:03;;;;;;;10.73;3.78;;;;;;;25.49;57.75;98326.19;5032460;28;20223;-57
2023/08/19 07:32:31;;;;;;;8.85;3.67;;;;;;;25.58;57.19;98343.56;5032690;28;20200;-58
2023/08/19 07:34:56;;;;;;;8.55;3.33;;;;;;;25.56;56.01;98320.94;5032240;28;20209;-57
2023/08/19 07:37:22;;;;;;;7.57;3.38;;;;;;;25.84;55.86;98343.59;5032034;28;20555;-58
2023/08/19 07:39:47;;;;;;;6.22;3.40;;;;;;;25.87;55.46;98327.28;5032242;28;20231;-58
2023/08/19 07:42:13;;;;;;;5.47;3.90;;;;;;;26.11;54.36;98329.34;5031833;28;20170;-58
2023/08/19 07:44:38;;;;;;;8.85;3.40;;;;;;;26.41;52.96;98361.59;5031751;28;20184;-58
2023/08/19 07:47:04;;;;;;;5.55;3.00;;;;;;;26.41;51.96;98327.91;5031677;28;20180;-58
2023/08/19 07:49:29;;;;;;;6.30;3.05;;;;;;;26.52;51.96;98323.78;5031531;28;20173;-59
2023/08/19 07:51:54;;;;;;;5.85;3.13;;;;;;;26.83;51.93;98358.47;5031598;28;20210;-59
2023/08/19 07:54:22;;;;;;;6.53;2.90;;;;;;;26.84;51.93;98334.38;5031312;28;20172;-59
2023/08/19 07:56:48;;;;;;;6.40;3.60;;;;;;;27.03;50.65;98324.69;5031575;28;20211;-58
2023/08/19 07:59:13;;;;;;;9.52;3.60;;;;;;;27.23;50.04;98328.91;5031849;28;20178;-58
2023/08/19 08:01:38;;;;;;;4.90;3.30;;;;;;;27.41;50.12;98329.03;5031477;28;20652;-57
2023/08/19 08:04:04;;;;;;;5.35;3.00;;;;;;;27.77;49.60;98350.53;5031063;28;20304;-57
2023/08/19 08:06:30;;;;;;;6.60;3.50;;;;;;;27.78;48.67;98322.91;5031290;28;20182;-57
2023/08/19 08:08:55;;;;;;;7.05;3.42;;;;;;;27.92;48.80;98324.41;5031404;28;20316;-57
2023/08/19 08:11:20;;;;;;;6.25;3.60;;;;;;;28.10;48.60;98343.09;5031300;28;20660;-58
2023/08/19 08:13:46;;;;;;;4.35;3.00;;;;;;;28.14;48.00;98322.19;5031102;28;20177;-58
2023/08/19 08:16:12;;;;;;;3.42;2.90;;;;;;;28.21;48.11;98331.75;5030903;28;20822;-57
2023/08/19 08:18:37;;;;;;;3.90;3.17;;;;;;;28.21;48.04;98321.09;5031333;28;20315;-58
2023/08/19 08:21:02;;;;;;;4.90;3.40;;;;;;;28.27;47.58;98325.56;5031166;28;20657;-58
2023/08/19 08:23:28;;;;;;;4.80;3.58;;;;;;;28.47;47.67;98346.69;5030885;28;20188;-57
2023/08/19 08:25:53;;;;;;;4.70;3.17;;;;;;;28.43;47.16;98319.69;5030917;28;20170;-58
2023/08/19 08:28:19;;;;;;;4.85;3.65;;;;;;;28.51;46.75;98318.59;5031087;28;20174;-58
2023/08/19 08:30:44;;;;;;;3.08;2.83;;;;;;;28.80;45.54;98350.66;5031175;28;20261;-58
2023/08/19 08:33:10;;;;;;;6.75;2.65;;;;;;;28.92;44.44;98346.22;5030901;28;20666;-58
2023/08/19 08:35:35;;;;;;;4.13;2.58;;;;;;;28.91;43.90;98338.47;5030806;28;20205;-58
2023/08/19 08:38:00;;;;;;;4.13;2.80;;;;;;;28.91;43.88;98320.59;5031107;28;20644;-58
2023/08/19 08:40:26;;;;;;;5.53;2.67;;;;;;;28.96;43.20;98350.09;5031171;28;20177;-58
2023/08/19 08:42:53;;;;;;;5.85;3.05;;;;;;;28.94;43.89;98328.16;5031092;28;20176;-58
2023/08/19 08:45:20;;;;;;;6.65;3.35;;;;;;;29.04;43.50;98323.13;5031149;28;20173;-58
2023/08/19 08:47:45;;;;;;;6.22;3.60;;;;;;;29.08;42.69;98315.50;5030910;28;20181;-58
2023/08/19 08:50:11;;;;;;;6.47;3.78;;;;;;;29.32;42.76;98341.25;5031541;28;20170;-59
2023/08/19 08:52:39;;;;;;;6.30;3.05;;;;;;;29.24;43.04;98312.22;5028511;28;20277;-57
2023/08/19 08:55:05;;;;;;;3.95;3.35;;;;;;;29.33;42.00;98311.69;5028446;28;20227;-57
2023/08/19 08:57:31;;;;;;;4.78;3.20;;;;;;;29.31;42.70;98313.78;5028618;28;20685;-58
2023/08/19 08:59:57;;;;;;;9.63;3.40;;;;;;;29.49;43.01;98332.38;5028729;28;20174;-58
2023/08/19 09:02:25;;;;;;;8.13;3.10;;;;;;;29.56;42.40;98333.13;5028714;28;20193;-58
2023/08/19 09:04:51;;;;;;;4.80;3.60;;;;;;;29.43;42.02;98301.28;5028538;28;20597;-57
2023/08/19 09:07:25;;;;;;;6.80;3.35;;;;;;;29.66;41.54;98335.25;5028486;28;20684;-57
2023/08/19 09:09:52;;;;;;;7.25;4.05;;;;;;;29.63;43.09;98327.72;5028351;28;20247;-57
2023/08/19 09:12:20;;;;;;;10.05;4.03;;;;;;;29.64;43.13;98319.50;5028256;28;20276;-57
2023/08/19 09:14:51;;;;;;;4.25;3.75;;;;;;;29.73;43.08;98320.78;5028277;28;20206;-57
2023/08/19 09:17:16;;;;;;;7.38;3.30;;;;;;;29.62;41.98;98294.88;5028213;28;20201;-57
2023/08/19 09:19:42;;;;;;;5.55;3.20;;;;;;;29.77;41.10;98305.94;5028227;28;20309;-57
2023/08/19 09:22:28;;;;;;;7.35;3.50;;;;;;;29.93;40.99;98326.63;5028218;28;20680;-57
2023/08/19 09:24:54;;;;;;;4.72;3.60;;;;;;;29.75;41.02;98293.88;5030217;28;20604;-58
2023/08/19 09:27:28;;;;;;;4.43;3.28;;;;;;;29.84;41.58;98306.66;5030659;28;20220;-57
2023/08/19 09:29:53;;;;;;;8.18;3.00;;;;;;;29.76;39.88;98301.66;5030648;28;20178;-57
2023/08/19 09:32:32;;;;;;;4.57;2.97;;;;;;;29.71;39.62;98306.88;5030694;28;20184;-57
2023/08/19 09:35:08;;;;;;;4.15;2.80;;;;;;;29.77;39.68;98292.59;5031380;28;20206;-58
2023/08/19 09:37:35;;;;;;;3.45;2.50;;;;;;;29.82;39.28;98292.75;5034201;28;20189;-57
2023/08/19 09:40:11;;;;;;;2.83;2.40;;;;;;;29.95;39.58;98321.88;5034345;28;20569;-57
2023/08/19 09:42:38;;;;;;;3.17;2.88;;;;;;;29.94;39.18;98308.75;5034251;28;20178;-57
2023/08/19 09:45:04;;;;;;;3.53;2.67;;;;;;;30.09;39.35;98317.97;5034186;28;20206;-57
2023/08/19 09:47:44;;;;;;;4.60;2.72;;;;;;;30.06;39.49;98293.56;5034057;28;20192;-58
2023/08/19 09:50:09;;;;;;;4.38;2.58;;;;;;;30.28;38.32;98322.19;5034051;28;20170;-57
2023/08/19 09:52:35;;;;;;;4.65;2.70;;;;;;;30.39;38.07;98324.03;5033949;28;20239;-58
2023/08/19 09:55:00;;;;;;;5.25;2.58;;;;;;;30.31;37.71;98292.31;5033890;28;20250;-58
2023/08/19 09:57:34;;;;;;;4.88;2.78;;;;;;;30.39;37.57;98296.50;5033931;28;20655;-58
2023/08/19 10:00:01;;;;;;;4.30;2.83;;;;;;;30.57;37.98;98323.91;5033917;28;20177;-58
2023/08/19 10:02:28;;;;;;;4.47;3.00;;;;;;;30.55;37.85;98298.47;5033455;28;20193;-57
2023/08/19 10:04:56;;;;;;;2.72;2.53;;;;;;;30.41;36.90;98303.25;5033755;28;20201;-57
2023/08/19 10:07:32;;;;;;;3.63;2.90;;;;;;;30.58;36.55;98306.84;5033419;28;20217;-57
2023/08/19 10:10:03;;;;;;;11.32;3.05;;;;;;;30.62;36.11;98308.00;5033737;28;20647;-57
2023/08/19 10:12:31;;;;;;;5.22;2.60;;;;;;;30.79;36.16;98340.97;5033918;28;20178;-57
2023/08/19 10:14:57;;;;;;;3.50;2.50;;;;;;;30.62;36.17;98317.84;5033740;28;20201;-57
2023/08/19 10:17:25;;;;;;;5.88;3.05;;;;;;;30.73;36.41;98314.41;5033718;28;20178;-57
2023/08/19 10:19:59;;;;;;;6.00;3.20;;;;;;;30.94;36.57;98330.63;5033733;28;20303;-57
2023/08/19 10:22:26;;;;;;;3.80;2.90;;;;;;;30.81;35.94;98306.81;5033535;28;20320;-57
2023/08/19 10:24:53;;;;;;;4.93;2.85;;;;;;;31.12;36.15;98327.78;5033591;28;20669;-57
2023/08/19 10:27:19;;;;;;;3.45;3.03;;;;;;;31.04;36.40;98298.75;5033565;28;20267;-58
2023/08/19 10:29:46;;;;;;;3.00;2.80;;;;;;;31.20;36.01;98321.28;5033419;28;20185;-57
2023/08/19 10:32:31;;;;;;;3.25;2.45;;;;;;;31.39;35.08;98320.84;5033373;28;20201;-57
2023/08/19 10:35:08;;;;;;;6.00;3.00;;;;;;;31.52;35.82;98325.91;5033283;28;20197;-57
2023/08/19 10:37:40;;;;;;;7.35;3.35;;;;;;;31.67;35.74;98328.03;5033192;28;20189;-57
2023/08/19 10:40:20;;;;;;;5.00;2.90;;;;;;;31.74;34.74;98321.53;5033134;28;20174;-57
2023/08/19 10:42:57;;;;;;;7.22;2.47;;;;;;;31.73;35.03;98311.88;5033332;28;20180;-57
2023/08/19 10:45:22;;;;;;;5.05;2.53;;;;;;;31.66;34.95;98297.00;5033139;28;20169;-58
2023/08/19 10:47:51;;;;;;;6.85;3.38;;;;;;;31.69;34.62;98326.75;5032537;28;20189;-57
2023/08/19 10:50:18;;;;;;;4.72;2.50;;;;;;;31.86;34.70;98316.09;5033155;28;20170;-58
2023/08/19 10:53:07;;;;;;;3.00;2.80;;;;;;;32.03;34.38;98295.47;5033042;28;20170;-57
2023/08/19 10:55:54;;;;;;;6.45;2.90;;;;;;;32.10;34.64;98283.56;5033109;28;20212;-58
2023/08/19 10:58:21;;;;;;;3.72;2.58;;;;;;;32.59;33.29;98309.47;5032953;28;20244;-57
2023/08/19 11:00:48;;;;;;;3.50;2.60;;;;;;;32.69;33.62;98300.78;5033010;28;20208;-57
2023/08/19 11:03:16;;;;;;;4.30;3.03;;;;;;;32.77;33.96;98292.34;5032981;28;20185;-58
2023/08/19 11:05:52;;;;;;;3.22;3.03;;;;;;;32.79;33.10;98284.84;5032930;28;20243;-58
2023/08/19 11:08:18;;;;;;;2.97;2.65;;;;;;;32.46;32.76;98293.75;5032915;28;20225;-57
2023/08/19 11:10:45;;;;;;;3.17;2.70;;;;;;;32.73;33.38;98292.00;5033083;28;20625;-58
2023/08/19 11:13:11;;;;;;;5.57;3.20;;;;;;;32.98;32.85;98294.22;5032784;28;20663;-58
2023/08/19 11:15:36;;;;;;;3.85;2.90;;;;;;;32.99;33.18;98304.69;5032692;28;20194;-58
2023/08/19 11:18:02;;;;;;;5.38;3.17;;;;;;;33.14;33.27;98302.19;5032754;28;20929;-59
2023/08/19 11:20:29;;;;;;;4.20;3.00;;;;;;;33.25;33.70;98285.13;5032628;28;20219;-58
2023/08/19 11:22:55;;;;;;;3.92;2.75;;;;;;;33.32;33.13;98296.50;5032788;28;20178;-58
2023/08/19 11:25:20;;;;;;;3.72;2.78;;;;;;;33.14;33.89;98270.00;5032248;28;20244;-56
2023/08/19 11:27:46;;;;;;;3.42;3.13;;;;;;;33.28;33.14;98276.59;5032536;28;20174;-58
2023/08/19 11:30:14;;;;;;;3.60;2.78;;;;;;;33.60;32.48;98272.09;5032449;28;20276;-57
2023/08/19 11:32:45;;;;;;;3.50;3.17;;;;;;;33.39;32.12;98269.50;5032387;28;20206;-58
2023/08/19 11:35:10;;;;;;;4.78;2.78;;;;;;;33.66;32.68;98300.63;5032335;28;20263;-57